Ana Sayfa
METAR-TAF:

METAR-TAF

Havaalanları :

Wallis, Fransa

Enlem: 13-14S, Boylam: 176-10W, yükseklik: 23 m

METAR: eksik

Saat: 07:22 (19:22 UTC)

Tahmin

Rapor saat 17:00 UTC de 2 saat ve 22 dakika önce yapıldı.
Ayın 19'si saat 18 UTC'den ayın 20'si saat 18 UTC'ye kadar geçerli Tahmin
Rüzgar doğudan 12 kt ve 25 kt'a kadar ani rüzgarlar
Görüş mesafesi 10 km veya daha fazla
2000 ft yükseklikte parçalı bulutlu
Geçici
ayın 19'si saat 18 UTC'den ayın 19'si saat 21 UTC'ye kadar
Görüş mesafesi: 3000 m
1200 ft yükseklikte parçalı çok bulutlu
2000 ft yükseklikte parçalı bulutlu, Kümülonimbus.
sağanak yağmurlar
Geçici
ayın 20'si saat 02 UTC'den ayın 20'si saat 18 UTC'ye kadar
Görüş mesafesi: 3500 m
1400 ft yükseklikte parçalı çok bulutlu
2000 ft yükseklikte parçalı bulutlu, Kümülonimbus.
sağanak yağmurlar

TAF: NLWW 191700Z 1918/2018 10012G25KT 9999 SCT020 TEMPO 1918/1921 3000 SHRA BKN012 SCT020CB TEMPO 2002/2018 3500 SHRA BKN014 SCT020CB

4.000'den fazla havaalanı için hava durumu gözlemleri ve tahminleri (METAR ve TAF raporları).

Kullanılabilir istasyonlar harita üzerinde sarı ve kırmızı noktalarla gösterilir.

İstasyonun adını görmek için fareyi noktanın üzerinde gezdirin.

Sonrasında hava gözlem ve tahminlerini görmek için tıklayın.

Haritayı değiştirmek için: yaklaştırmak için siyah artı işaretli yeşil düğmeye ve uzaklaştırmak için de eksi işaretli düğmeye hızla tıklayın; bitişik haritalar için yeşil okları kullanın.


METAR-TAF: